Sutton, WV

8:41 PM EST on December 09, 2016 (GMT -0500)
Estates | | Change Station

Elev 1178 ft 38.66 °N, 80.74 °W | Updated 59 seconds ago

Snow
Snow
26.4 °F
Feels Like 26 °F
N
2.0
Wind Variable Wind from East
Gusts 2.0 mph

Today
High -- | Low -- °F
--% Chance of Precip.
Yesterday
High -- | Low -- °F
Precip. -- in
Pressure 30.42 in
Visibility 10.0 miles
Clouds Overcast 3500 ft
Windchill 26 °F
Dew Point 19 °F
Humidity 72%
Rainfall 0.00 in
Snow Depth Not available.
7:29 AM 5:01 PM
Waxing Gibbous, 79% visible
METAR KW22 100135Z AUTO 26007KT 10SM OVC035 M06/M10 A3042 RMK AO2 PWINO
Pressure 30.42 in
Visibility 10.0 miles
Clouds Overcast 3500 ft
Windchill 26 °F
Dew Point 19 °F
Humidity 72%
Rainfall 0.00 in
Snow Depth Not available.
7:29 AM 5:01 PM
Waxing Gibbous, 79% visible
METAR KW22 100135Z AUTO 26007KT 10SM OVC035 M06/M10 A3042 RMK AO2 PWINO

10-Day Weather Forecast

Almanac

Astronomy

Dec. 09, 2016 Rise Set
Actual Time
Civil Twilight
Nautical Twilight
Astronomical Twilight
Moon
Length of Visible Light
Length of Day
Tomorrow will be .
, % of the Moon is Illuminated

Today's Extremes

State Highs State Lows

Community

WunderPhotos

Upload Photos

1,956,534 photos uploaded!

WunderBlog® & News

Nearby

Air Quality

  Air Quality AQ Index Pollutant
Not available.

Snow Depth

Station Depth Elevation

Earthquake Activity

City Distance Mag. Time & Date
Minimum magnitude displayed is 2.5.

Coastal Water Temperatures

Place Temperature

Stations

Nearby Weather Stations

Station Location Temp. Windchill Dew Point Humidity Wind Precip. Elev Updated Type
                   

Watches & Warnings

There are currently no watches in effect.